Time;durP1;ratioP1;P1;durP2;ratioP2;P2;SDS_P1;SDS_P2;PMS_P1;PMS_P2;Temp;Humidity;BMP_temperature;BMP_pressure;BME280_temperature;BME280_humidity;BME280_pressure;Samples;Min_cycle;Max_cycle;Signal;HPM_P1;HPM_P2
2023/08/25 00:00:58;;;;;;;;;;;;;;;19.84;100.00;96247.41;5045145;28;19959;-82
2023/08/25 00:03:23;;;;;;;;;;;;;;;19.83;100.00;96253.78;5045086;28;19956;-73
2023/08/25 00:05:55;;;;;;;;;;;;;;;19.83;100.00;96258.34;5045094;28;20001;-73
2023/08/25 00:08:21;;;;;;;;;;;;;;;19.81;100.00;96253.28;5045114;28;19957;-74
2023/08/25 00:10:47;;;;;;;;;;;;;;;19.79;100.00;96263.41;5045054;28;19959;-73
2023/08/25 00:13:13;;;;;;;;;;;;;;;19.79;100.00;96267.94;5044830;28;19944;-74
2023/08/25 00:15:40;;;;;;;;;;;;;;;19.76;100.00;96258.66;5044896;28;19976;-73
2023/08/25 00:18:06;;;;;;;;;;;;;;;19.77;100.00;96262.13;5044998;28;19964;-75
2023/08/25 00:20:32;;;;;;;;;;;;;;;19.73;100.00;96250.44;5044600;28;19962;-76
2023/08/25 00:22:58;;;;;;;;;;;;;;;19.73;100.00;96250.44;5044899;28;19953;-73
2023/08/25 00:25:23;;;;;;;;;;;;;;;19.72;100.00;96238.19;5044583;28;19965;-74
2023/08/25 00:27:49;;;;;;;;;;;;;;;19.73;100.00;96237.13;5027251;28;19955;-73
2023/08/25 00:30:15;;;;;;;;;;;;;;;19.75;100.00;96232.34;5026966;28;19969;-74
2023/08/25 00:32:41;;;;;;;;;;;;;;;19.77;100.00;96230.97;5044395;28;20004;-74
2023/08/25 00:35:07;;;;;;;;;;;;;;;19.78;100.00;96227.25;5043900;28;20005;-73
2023/08/25 00:37:33;;;;;;;;;;;;;;;19.78;100.00;96229.91;5044695;28;20003;-74
2023/08/25 00:39:59;;;;;;;;;;;;;;;19.80;100.00;96226.94;5044634;28;19951;-73
2023/08/25 00:42:24;;;;;;;;;;;;;;;19.81;100.00;96225.88;5044887;28;20095;-75
2023/08/25 00:44:50;;;;;;;;;;;;;;;19.77;100.00;96215.00;5044179;28;20003;-75
2023/08/25 00:47:17;;;;;;;;;;;;;;;19.75;100.00;96219.03;5026952;28;19967;-75
2023/08/25 00:49:43;;;;;;;;;;;;;;;19.72;100.00;96215.06;5044523;28;20139;-76
2023/08/25 00:52:10;;;;;;;;;;;;;;;19.70;100.00;96203.91;5044714;28;19959;-75
2023/08/25 00:54:36;;;;;;;;;;;;;;;19.70;100.00;96209.25;5044171;28;19967;-73
2023/08/25 00:57:03;;;;;;;;;;;;;;;19.70;100.00;96203.06;5044291;28;19953;-75
2023/08/25 00:59:32;;;;;;;;;;;;;;;19.68;100.00;96190.84;5044283;28;19963;-75
2023/08/25 01:01:59;;;;;;;;;;;;;;;19.72;100.00;96195.63;5043956;28;19958;-74
2023/08/25 01:04:25;;;;;;;;;;;;;;;19.74;100.00;96198.81;5044322;28;19954;-74
2023/08/25 01:06:50;;;;;;;;;;;;;;;19.75;100.00;96200.41;5043121;28;19991;-74
2023/08/25 01:09:18;;;;;;;;;;;;;;;19.75;100.00;96203.84;5044332;28;20121;-75
2023/08/25 01:12:04;;;;;;;;;;;;;;;19.75;100.00;96201.19;5044384;28;19966;-74
2023/08/25 01:14:49;;;;;;;;;;;;;;;19.75;100.00;96205.72;5044104;28;20251;-73
2023/08/25 01:17:24;;;;;;;;;;;;;;;19.73;100.00;96215.84;5044493;28;19954;-73
2023/08/25 01:19:53;;;;;;;;;;;;;;;19.71;100.00;96223.31;5026435;28;19964;-73
2023/08/25 01:22:25;;;;;;;;;;;;;;;19.67;100.00;96225.72;5044193;28;19956;-73
2023/08/25 01:24:52;;;;;;;;;;;;;;;19.64;100.00;96226.28;5044257;28;19958;-73
2023/08/25 01:27:18;;;;;;;;;;;;;;;19.60;100.00;96226.06;5044190;28;19954;-73
2023/08/25 01:29:44;;;;;;;;;;;;;;;19.61;100.00;96225.00;5044396;28;19945;-72
2023/08/25 01:32:10;;;;;;;;;;;;;;;19.62;100.00;96223.13;5026838;28;19978;-77
2023/08/25 01:34:36;;;;;;;;;;;;;;;19.63;100.00;96225.50;5043731;28;19962;-73
2023/08/25 01:37:10;;;;;;;;;;;;;;;19.64;100.00;96224.41;5010262;28;19968;-72
2023/08/25 01:39:37;;;;;;;;;;;;;;;19.62;100.00;96226.56;5044277;28;19960;-74
2023/08/25 01:42:05;;;;;;;;;;;;;;;19.58;100.00;96222.09;5043907;28;19964;-74
2023/08/25 01:44:32;;;;;;;;;;;;;;;19.57;100.00;96217.84;5010084;28;19968;-73
2023/08/25 01:47:00;;;;;;;;;;;;;;;19.54;100.00;96216.53;5047371;28;19959;-74
2023/08/25 01:49:26;;;;;;;;;;;;;;;19.50;100.00;96212.84;5047730;28;20143;-87
2023/08/25 01:51:52;;;;;;;;;;;;;;;19.45;100.00;96213.69;5047223;28;19968;-74
2023/08/25 01:54:18;;;;;;;;;;;;;;;19.47;100.00;96218.75;5029802;28;20152;-74
2023/08/25 01:56:44;;;;;;;;;;;;;;;19.47;100.00;96211.53;5047531;28;19961;-74
2023/08/25 01:59:10;;;;;;;;;;;;;;;19.47;100.00;96208.88;5030277;28;19968;-74
2023/08/25 02:01:36;;;;;;;;;;;;;;;19.49;100.00;96211.28;5047336;28;19957;-74
2023/08/25 02:04:02;;;;;;;;;;;;;;;19.50;100.00;96199.56;5047186;28;19964;-72
2023/08/25 02:06:28;;;;;;;;;;;;;;;19.51;100.00;96205.66;5047146;28;19957;-73
2023/08/25 02:08:54;;;;;;;;;;;;;;;19.51;100.00;96205.66;5047159;28;20130;-72
2023/08/25 02:11:20;;;;;;;;;;;;;;;19.53;100.00;96211.50;5047190;28;19955;-73
2023/08/25 02:13:45;;;;;;;;;;;;;;;19.53;100.00;96204.31;5047471;28;20247;-74
2023/08/25 02:16:12;;;;;;;;;;;;;;;19.54;100.00;96203.22;5047025;28;19964;-72
2023/08/25 02:18:37;;;;;;;;;;;;;;;19.55;100.00;96207.50;5012918;28;19964;-73
2023/08/25 02:21:03;;;;;;;;;;;;;;;19.56;100.00;96206.41;5046641;28;19965;-73
2023/08/25 02:23:29;;;;;;;;;;;;;;;19.57;100.00;96199.22;5047135;28;19961;-74
2023/08/25 02:25:55;;;;;;;;;;;;;;;19.57;100.00;96177.94;5047318;28;19948;-72
2023/08/25 02:28:21;;;;;;;;;;;;;;;19.56;100.00;96192.31;5029694;28;20011;-72
2023/08/25 02:30:47;;;;;;;;;;;;;;;19.54;100.00;96189.94;5047200;28;20065;-73
2023/08/25 02:33:13;;;;;;;;;;;;;;;19.53;100.00;96182.22;5046947;28;19956;-73
2023/08/25 02:35:38;;;;;;;;;;;;;;;19.50;100.00;96190.78;5046462;28;19959;-73
2023/08/25 02:38:06;;;;;;;;;;;;;;;19.47;100.00;96187.63;5029200;28;20004;-73
2023/08/25 02:40:33;;;;;;;;;;;;;;;19.46;100.00;96180.72;5046198;28;19967;-73
2023/08/25 02:42:59;;;;;;;;;;;;;;;19.44;100.00;96166.91;5029165;28;20251;-73
2023/08/25 02:45:26;;;;;;;;;;;;;;;19.43;100.00;96161.88;5028729;28;19963;-73
2023/08/25 02:47:52;;;;;;;;;;;;;;;19.41;100.00;96159.47;5046657;28;19958;-82
2023/08/25 02:50:18;;;;;;;;;;;;;;;19.40;100.00;96173.06;5012374;28;19964;-85
2023/08/25 02:52:44;;;;;;;;;;;;;;;19.37;100.00;96171.75;5046539;28;19962;-85
2023/08/25 02:55:11;;;;;;;;;;;;;;;19.36;100.00;96180.81;5028395;28;20135;-86
2023/08/25 02:57:37;;;;;;;;;;;;;;;19.33;100.00;96177.91;5045234;28;19963;-86
2023/08/25 03:00:04;;;;;;;;;;;;;;;19.33;100.00;96175.25;5046101;28;20303;-86
2023/08/25 03:02:31;;;;;;;;;;;;;;;19.31;100.00;96164.09;5028417;28;20149;-73
2023/08/25 03:04:57;;;;;;;;;;;;;;;19.30;100.00;96163.31;5046357;28;19953;-87
2023/08/25 03:07:22;;;;;;;;;;;;;;;19.31;100.00;96159.56;5046267;28;19961;-73
2023/08/25 03:09:48;;;;;;;;;;;;;;;19.33;100.00;96159.31;5028054;28;19958;-74
2023/08/25 03:12:14;;;;;;;;;;;;;;;19.34;100.00;96158.22;5045973;28;19960;-72
2023/08/25 03:14:40;;;;;;;;;;;;;;;19.33;100.00;96148.66;5028371;28;19981;-73
2023/08/25 03:17:06;;;;;;;;;;;;;;;19.34;100.00;96136.94;5046038;28;20272;-73
2023/08/25 03:19:32;;;;;;;;;;;;;;;19.34;100.00;96132.44;5046032;28;19967;-73
2023/08/25 03:21:58;;;;;;;;;;;;;;;19.32;100.00;96128.47;5045991;28;19959;-74
2023/08/25 03:24:23;;;;;;;;;;;;;;;19.25;100.00;96123.47;5027683;28;19952;-79
2023/08/25 03:26:49;;;;;;;;;;;;;;;19.23;100.00;96121.13;5028408;28;19961;-78
2023/08/25 03:29:15;;;;;;;;;;;;;;;19.26;100.00;96119.75;5045971;28;19950;-77
2023/08/25 03:31:41;;;;;;;;;;;;;;;19.27;100.00;96108.81;5045821;28;20029;-77
2023/08/25 03:34:07;;;;;;;;;;;;;;;19.29;100.00;96099.78;5027672;28;19968;-78
2023/08/25 03:36:33;;;;;;;;;;;;;;;19.28;100.00;96096.34;5027700;28;20126;-77
2023/08/25 03:38:59;;;;;;;;;;;;;;;19.28;100.00;96106.97;5027670;28;19968;-77
2023/08/25 03:41:25;;;;;;;;;;;;;;;19.27;100.00;96098.19;5045475;28;19961;-74
2023/08/25 03:43:51;;;;;;;;;;;;;;;19.26;100.00;96109.91;5045482;28;20010;-74
2023/08/25 03:46:16;;;;;;;;;;;;;;;19.26;100.00;96099.28;5045451;28;19983;-73
2023/08/25 03:48:42;;;;;;;;;;;;;;;19.26;100.00;96098.50;5045487;28;20234;-74
2023/08/25 03:51:08;;;;;;;;;;;;;;;19.26;100.00;96083.31;5045474;28;19965;-74
2023/08/25 03:53:34;;;;;;;;;;;;;;;19.26;100.00;96085.97;5027599;28;19955;-74
2023/08/25 03:56:00;;;;;;;;;;;;;;;19.26;100.00;96085.19;5044830;28;19962;-73
2023/08/25 03:58:26;;;;;;;;;;;;;;;19.25;100.00;96086.25;5045232;28;19958;-73
2023/08/25 04:00:55;;;;;;;;;;;;;;;19.26;100.00;96087.84;5045153;28;19985;-73
2023/08/25 04:03:21;;;;;;;;;;;;;;;19.26;100.00;96085.19;5044904;28;19963;-75
2023/08/25 04:05:47;;;;;;;;;;;;;;;19.24;100.00;96082.03;5027056;28;20223;-73
2023/08/25 04:08:13;;;;;;;;;;;;;;;19.20;100.00;96068.50;5044875;28;19958;-73
2023/08/25 04:10:42;;;;;;;;;;;;;;;19.18;100.00;96069.84;5044932;28;19958;-73
2023/08/25 04:13:08;;;;;;;;;;;;;;;19.15;100.00;96079.19;5044983;28;20249;-73
2023/08/25 04:15:35;;;;;;;;;;;;;;;19.14;100.00;96076.81;5044852;28;19966;-73
2023/08/25 04:18:01;;;;;;;;;;;;;;;19.13;100.00;96073.38;5027047;28;19957;-73
2023/08/25 04:20:27;;;;;;;;;;;;;;;19.11;100.00;96067.53;5044445;28;19958;-86
2023/08/25 04:22:53;;;;;;;;;;;;;;;19.09;100.00;96063.56;5044878;28;20166;-85
2023/08/25 04:25:18;;;;;;;;;;;;;;;19.08;100.00;96072.63;5027535;28;20892;-85
2023/08/25 04:27:44;;;;;;;;;;;;;;;19.06;100.00;96075.56;5044401;28;19959;-84
2023/08/25 04:30:11;;;;;;;;;;;;;;;19.04;100.00;96078.47;5010949;28;20034;-86
2023/08/25 04:32:36;;;;;;;;;;;;;;;19.03;100.00;96071.59;5044391;28;19967;-85
2023/08/25 04:35:03;;;;;;;;;;;;;;;19.03;100.00;96058.31;5044473;28;19953;-82
2023/08/25 04:37:29;;;;;;;;;;;;;;;19.01;100.00;96049.03;5043560;28;20133;-84
2023/08/25 04:39:55;;;;;;;;;;;;;;;18.99;100.00;96046.66;5026968;28;20031;-84
2023/08/25 04:42:22;;;;;;;;;;;;;;;18.99;100.00;96035.25;5044495;28;19963;-84
2023/08/25 04:44:48;;;;;;;;;;;;;;;18.98;100.00;96023.81;5044545;28;19960;-84
2023/08/25 04:47:16;;;;;;;;;;;;;;;18.98;100.00;96017.69;5026863;28;19958;-86
2023/08/25 04:49:43;;;;;;;;;;;;;;;18.97;100.00;96014.25;5044106;28;20275;-85
2023/08/25 04:52:08;;;;;;;;;;;;;;;18.96;100.00;96015.34;5044539;28;19968;-85
2023/08/25 04:54:34;;;;;;;;;;;;;;;18.98;100.00;96015.84;5044578;28;19970;-79
2023/08/25 04:57:00;;;;;;;;;;;;;;;18.98;100.00;96020.34;5026485;28;19970;-73
2023/08/25 04:59:26;;;;;;;;;;;;;;;19.03;100.00;96020.31;5044721;28;19959;-73
2023/08/25 05:01:52;;;;;;;;;;;;;;;19.13;100.00;96016.75;5026377;28;19964;-72
2023/08/25 05:04:18;;;;;;;;;;;;;;;19.27;100.00;96009.66;5026555;28;19962;-72
2023/08/25 05:06:44;;;;;;;;;;;;;;;19.39;100.00;96010.06;5044371;28;20018;-73
2023/08/25 05:09:10;;;;;;;;;;;;;;;19.55;100.00;96007.19;5044187;28;19957;-73
2023/08/25 05:11:36;;;;;;;;;;;;;;;19.66;100.00;96004.13;5026643;28;19984;-73
2023/08/25 05:14:02;;;;;;;;;;;;;;;19.76;100.00;95994.44;5044243;28;20144;-74
2023/08/25 05:16:28;;;;;;;;;;;;;;;19.82;100.00;95995.97;5044199;28;20142;-73
2023/08/25 05:18:53;;;;;;;;;;;;;;;19.92;100.00;95992.38;5026300;28;19965;-74
2023/08/25 05:21:19;;;;;;;;;;;;;;;20.03;100.00;95988.47;5046821;28;19956;-73
2023/08/25 05:23:48;;;;;;;;;;;;;;;20.13;100.00;95988.31;5048429;28;19945;-73
2023/08/25 05:26:14;;;;;;;;;;;;;;;20.28;100.00;95996.09;5048361;28;19960;-73
2023/08/25 05:28:40;;;;;;;;;;;;;;;20.49;100.00;96001.06;5047771;28;20016;-72
2023/08/25 05:31:06;;;;;;;;;;;;;;;20.72;100.00;96009.25;5047832;28;19965;-76
2023/08/25 05:33:32;;;;;;;;;;;;;;;20.96;100.00;96014.41;5030313;28;19968;-72
2023/08/25 05:35:58;;;;;;;;;;;;;;;21.18;100.00;96019.84;5029965;28;19972;-72
2023/08/25 05:38:23;;;;;;;;;;;;;;;21.36;100.00;96017.41;5029771;28;19964;-74
2023/08/25 05:40:49;;;;;;;;;;;;;;;21.42;100.00;96029.56;5030079;28;19998;-74
2023/08/25 05:43:15;;;;;;;;;;;;;;;21.41;100.00;96042.06;5029883;28;20137;-74
2023/08/25 05:45:41;;;;;;;;;;;;;;;21.36;100.00;96052.84;5029952;28;20168;-73
2023/08/25 05:48:07;;;;;;;;;;;;;;;21.28;100.00;96067.66;5029954;28;20281;-83
2023/08/25 05:50:33;;;;;;;;;;;;;;;21.21;100.00;96080.59;5047767;28;19960;-73
2023/08/25 05:52:59;;;;;;;;;;;;;;;21.15;100.00;96087.13;5029520;28;19946;-84
2023/08/25 05:55:26;;;;;;;;;;;;;;;21.13;100.00;96096.50;5047571;28;19962;-85
2023/08/25 05:57:52;;;;;;;;;;;;;;;21.11;100.00;96109.34;5047622;28;19954;-84
2023/08/25 06:00:18;;;;;;;;;;;;;;;21.06;100.00;96113.66;5047274;28;19967;-84
2023/08/25 06:02:44;;;;;;;;;;;;;;;21.13;100.00;96112.50;5047345;28;19958;-84
2023/08/25 06:05:09;;;;;;;;;;;;;;;21.08;100.00;96114.16;5047252;28;20216;-83
2023/08/25 06:07:35;;;;;;;;;;;;;;;20.99;100.00;96147.09;5047260;28;19958;-73
2023/08/25 06:10:01;;;;;;;;;;;;;;;20.90;100.00;96236.81;5046196;28;19964;-73
2023/08/25 06:12:28;;;;;;;;;;;;;;;20.70;100.00;96268.00;5047306;28;20034;-73
2023/08/25 06:14:53;;;;;;;;;;;;;;;20.50;100.00;96253.03;5047228;28;20272;-74
2023/08/25 06:17:19;;;;;;;;;;;;;;;20.35;100.00;96250.56;5046949;28;19966;-73
2023/08/25 06:19:45;;;;;;;;;;;;;;;20.18;100.00;96249.19;5046718;28;19962;-73
2023/08/25 06:22:11;;;;;;;;;;;;;;;20.11;100.00;96239.94;5047155;28;19965;-75
2023/08/25 06:24:37;;;;;;;;;;;;;;;20.04;100.00;96232.28;5047345;28;19958;-73
2023/08/25 06:27:03;;;;;;;;;;;;;;;19.98;100.00;96204.16;5047187;28;19965;-72
2023/08/25 06:29:29;;;;;;;;;;;;;;;19.92;100.00;96222.03;5013182;28;19967;-83
2023/08/25 06:31:56;;;;;;;;;;;;;;;19.85;100.00;96221.59;5045676;28;19973;-83
2023/08/25 06:34:22;;;;;;;;;;;;;;;19.78;100.00;96229.09;5046940;28;19955;-82
2023/08/25 06:36:48;;;;;;;;;;;;;;;19.72;100.00;96220.41;5028852;28;20351;-81
2023/08/25 06:39:14;;;;;;;;;;;;;;;19.64;100.00;96213.78;5046704;28;19960;-81
2023/08/25 06:41:40;;;;;;;;;;;;;;;19.56;100.00;96221.59;5028873;28;19965;-82
2023/08/25 06:44:06;;;;;;;;;;;;;;;19.48;100.00;96221.09;5046922;28;20118;-73
2023/08/25 06:46:33;;;;;;;;;;;;;;;19.48;100.00;96234.41;5046747;28;20128;-72
2023/08/25 06:48:58;;;;;;;;;;;;;;;19.44;100.00;96241.38;5028784;28;19995;-73
2023/08/25 06:51:24;;;;;;;;;;;;;;;19.43;100.00;96246.97;5046591;28;19963;-73
2023/08/25 06:53:50;;;;;;;;;;;;;;;19.41;100.00;96252.56;5046747;28;20138;-73
2023/08/25 06:56:16;;;;;;;;;;;;;;;19.40;100.00;96236.88;5046454;28;19970;-73
2023/08/25 06:58:42;;;;;;;;;;;;;;;19.39;100.00;96219.34;5028751;28;19966;-73
2023/08/25 07:01:08;;;;;;;;;;;;;;;19.34;100.00;96236.13;5028864;28;20006;-73
2023/08/25 07:03:34;;;;;;;;;;;;;;;19.29;100.00;96267.28;5046148;28;20006;-74
2023/08/25 07:06:00;;;;;;;;;;;;;;;19.29;100.00;96299.19;5012331;28;19968;-75
2023/08/25 07:08:26;;;;;;;;;;;;;;;19.30;100.00;96311.41;5046126;28;20288;-76
2023/08/25 07:10:52;;;;;;;;;;;;;;;19.27;100.00;96315.41;5012563;28;20331;-74
2023/08/25 07:13:18;;;;;;;;;;;;;;;19.26;100.00;96332.44;5046137;28;19991;-76
2023/08/25 07:15:43;;;;;;;;;;;;;;;19.22;100.00;96350.81;5046107;28;19966;-75
2023/08/25 07:18:10;;;;;;;;;;;;;;;19.21;100.00;96367.03;5046182;28;19973;-75
2023/08/25 07:20:35;;;;;;;;;;;;;;;19.18;100.00;96394.97;5046108;28;20151;-73
2023/08/25 07:23:01;;;;;;;;;;;;;;;19.18;100.00;96392.31;5012350;28;19947;-75
2023/08/25 07:25:27;;;;;;;;;;;;;;;19.22;100.00;96389.91;5028388;28;19973;-75
2023/08/25 07:27:53;;;;;;;;;;;;;;;19.22;100.00;96385.38;5028392;28;20004;-74
2023/08/25 07:30:19;;;;;;;;;;;;;;;19.22;100.00;96408.50;5045776;28;19953;-73
2023/08/25 07:32:45;;;;;;;;;;;;;;;19.18;100.00;96442.81;5045586;28;19983;-74
2023/08/25 07:35:11;;;;;;;;;;;;;;;19.13;100.00;96466.78;5045610;28;19967;-73
2023/08/25 07:37:41;;;;;;;;;;;;;;;19.10;100.00;96463.84;5045374;28;19971;-74
2023/08/25 07:40:07;;;;;;;;;;;;;;;19.09;100.00;96449.78;5027803;28;19971;-78
2023/08/25 07:42:33;;;;;;;;;;;;;;;19.12;100.00;96443.91;5045509;28;19957;-73
2023/08/25 07:44:59;;;;;;;;;;;;;;;19.12;100.00;96437.78;5027400;28;20158;-73
2023/08/25 07:47:24;;;;;;;;;;;;;;;19.13;100.00;96432.22;5027715;28;20263;-73
2023/08/25 07:49:50;;;;;;;;;;;;;;;19.18;100.00;96436.69;5027668;28;20039;-73
2023/08/25 07:52:16;;;;;;;;;;;;;;;19.21;100.00;96441.47;5028170;28;20258;-73
2023/08/25 07:54:42;;;;;;;;;;;;;;;19.17;100.00;96440.41;5027521;28;19963;-72
2023/08/25 07:57:08;;;;;;;;;;;;;;;19.12;100.00;96430.59;5045578;28;19971;-81
2023/08/25 07:59:34;;;;;;;;;;;;;;;19.13;100.00;96434.88;5045475;28;20009;-83
2023/08/25 08:02:00;;;;;;;;;;;;;;;19.12;100.00;96438.59;5045486;28;19967;-77
2023/08/25 08:04:26;;;;;;;;;;;;;;;19.15;100.00;96445.22;5045006;28;19968;-78
2023/08/25 08:06:52;;;;;;;;;;;;;;;19.14;100.00;96457.72;5045057;28;19964;-76
2023/08/25 08:09:18;;;;;;;;;;;;;;;19.12;100.00;96451.88;5045069;28;19960;-76
2023/08/25 08:11:44;;;;;;;;;;;;;;;19.10;100.00;96455.88;5045017;28;19960;-76
2023/08/25 08:14:09;;;;;;;;;;;;;;;19.06;100.00;96453.75;5044645;28;20022;-76
2023/08/25 08:16:35;;;;;;;;;;;;;;;19.01;100.00;96416.56;5044995;28;19970;-81
2023/08/25 08:19:02;;;;;;;;;;;;;;;19.00;100.00;96390.25;5028003;28;20254;-80
2023/08/25 08:21:28;;;;;;;;;;;;;;;19.00;100.00;96358.38;5044982;28;19965;-80
2023/08/25 08:23:54;;;;;;;;;;;;;;;19.03;100.00;96355.19;5044733;28;19978;-80
2023/08/25 08:26:20;;;;;;;;;;;;;;;19.07;100.00;96345.59;5027638;28;19959;-80
2023/08/25 08:28:46;;;;;;;;;;;;;;;19.10;100.00;96331.72;5044537;28;20237;-80
2023/08/25 08:31:18;;;;;;;;;;;;;;;19.13;100.00;96319.75;5044785;28;19968;-81
2023/08/25 08:33:45;;;;;;;;;;;;;;;19.16;100.00;96261.53;5044609;28;20140;-73
2023/08/25 08:36:11;;;;;;;;;;;;;;;19.19;100.00;96249.53;5026835;28;19966;-80
2023/08/25 08:38:37;;;;;;;;;;;;;;;19.22;100.00;96252.44;5044593;28;19984;-80
2023/08/25 08:41:03;;;;;;;;;;;;;;;19.25;100.00;96267.03;5044597;28;20139;-80
2023/08/25 08:43:35;;;;;;;;;;;;;;;19.27;100.00;96283.50;5044631;28;20028;-80
2023/08/25 08:46:03;;;;;;;;;;;;;;;19.22;100.00;96297.63;5044768;28;19981;-80
2023/08/25 08:48:31;;;;;;;;;;;;;;;19.19;100.00;96281.44;5044597;28;19940;-81
2023/08/25 08:50:57;;;;;;;;;;;;;;;19.17;100.00;96295.03;5026871;28;19969;-81
2023/08/25 08:53:24;;;;;;;;;;;;;;;19.17;100.00;96292.38;5044635;28;20026;-81
2023/08/25 08:55:51;;;;;;;;;;;;;;;19.15;100.00;96296.34;5026232;28;19964;-73
2023/08/25 08:58:17;;;;;;;;;;;;;;;19.11;100.00;96287.34;5044278;28;20144;-73
2023/08/25 09:00:43;;;;;;;;;;;;;;;19.08;100.00;96250.69;5026616;28;19961;-73
2023/08/25 09:03:11;;;;;;;;;;;;;;;19.09;100.00;96250.41;5044311;28;19963;-73
2023/08/25 09:05:39;;;;;;;;;;;;;;;19.12;100.00;96252.50;5044309;28;19968;-73
2023/08/25 09:08:07;;;;;;;;;;;;;;;19.12;100.00;96249.84;5044727;28;19956;-73
2023/08/25 09:10:33;;;;;;;;;;;;;;;19.12;100.00;96247.19;5044561;28;20155;-74
2023/08/25 09:12:59;;;;;;;;;;;;;;;19.14;100.00;96247.72;5044551;28;19987;-73
2023/08/25 09:15:29;;;;;;;;;;;;;;;19.15;100.00;96227.22;5044614;28;19972;-82
2023/08/25 09:17:59;;;;;;;;;;;;;;;19.18;100.00;96208.88;5044674;28;19982;-82
2023/08/25 09:20:25;;;;;;;;;;;;;;;19.25;100.00;96204.00;5010765;28;19969;-82
2023/08/25 09:22:55;;;;;;;;;;;;;;;19.33;100.00;96215.13;5026782;28;20183;-82
2023/08/25 09:25:22;;;;;;;;;;;;;;;19.42;100.00;96211.59;5044221;28;20235;-81
2023/08/25 09:27:47;;;;;;;;;;;;;;;19.50;100.00;96225.34;5044521;28;19957;-81
2023/08/25 09:30:14;;;;;;;;;;;;;;;19.56;100.00;96198.44;5026593;28;20006;-73
2023/08/25 09:32:40;;;;;;;;;;;;;;;19.63;100.00;96212.19;5044083;28;20239;-74
2023/08/25 09:35:13;;;;;;;;;;;;;;;19.70;100.00;96222.53;5044273;28;19962;-74
2023/08/25 09:37:40;;;;;;;;;;;;;;;19.79;100.00;96230.69;5026267;28;19974;-74
2023/08/25 09:40:07;;;;;;;;;;;;;;;19.84;100.00;96230.63;5044143;28;19962;-75
2023/08/25 09:42:33;;;;;;;;;;;;;;;19.90;100.00;96229.50;5026789;28;19944;-75
2023/08/25 09:45:00;;;;;;;;;;;;;;;19.95;100.00;96242.78;5025603;28;20943;-74
2023/08/25 09:47:26;;;;;;;;;;;;;;;20.01;100.00;96240.81;5043727;28;19968;-85
2023/08/25 09:49:52;;;;;;;;;;;;;;;20.04;100.00;96259.69;5043755;28;20168;-77
2023/08/25 09:52:19;;;;;;;;;;;;;;;20.07;100.00;96258.34;5026272;28;19957;-83
2023/08/25 09:54:45;;;;;;;;;;;;;;;20.16;100.00;96258.50;5025896;28;19969;-84
2023/08/25 09:57:11;;;;;;;;;;;;;;;20.25;100.00;96241.63;5043358;28;19967;-84
2023/08/25 09:59:37;;;;;;;;;;;;;;;20.33;100.00;96232.22;5026268;28;19957;-84
2023/08/25 10:02:03;;;;;;;;;;;;;;;20.39;100.00;96240.91;5043769;28;19957;-87
2023/08/25 10:04:29;;;;;;;;;;;;;;;20.46;100.00;96228.84;5026290;28;20248;-84
2023/08/25 10:06:54;;;;;;;;;;;;;;;20.53;100.00;96230.38;5045622;28;19954;-78
2023/08/25 10:09:21;;;;;;;;;;;;;;;20.64;100.00;96232.66;5047562;28;20014;-74
2023/08/25 10:11:50;;;;;;;;;;;;;;;20.69;100.00;96234.44;5046892;28;19947;-73
2023/08/25 10:14:17;;;;;;;;;;;;;;;20.72;100.00;96228.53;5029362;28;20178;-74
2023/08/25 10:16:50;;;;;;;;;;;;;;;20.70;100.00;96220.03;5047024;28;19963;-74
2023/08/25 10:19:23;;;;;;;;;;;;;;;20.69;100.00;96218.47;5047297;28;19966;-74
2023/08/25 10:21:51;;;;;;;;;;;;;;;20.71;100.00;96239.50;5029603;28;19967;-73
2023/08/25 10:24:20;;;;;;;;;;;;;;;20.73;100.00;96243.44;5047048;28;19957;-73
2023/08/25 10:26:47;;;;;;;;;;;;;;;20.78;100.00;96264.69;5029551;28;19960;-74
2023/08/25 10:29:17;;;;;;;;;;;;;;;20.79;100.00;96244.97;5047199;28;19973;-73
2023/08/25 10:31:51;;;;;;;;;;;;;;;20.85;100.00;96227.81;5047055;28;19956;-73
2023/08/25 10:34:34;;;;;;;;;;;;;;;20.88;100.00;96242.44;5046516;28;19959;-73
2023/08/25 10:37:03;;;;;;;;;;;;;;;20.91;100.00;96246.41;5029312;28;19967;-73
2023/08/25 10:39:44;;;;;;;;;;;;;;;21.02;100.00;96242.47;5046578;28;19959;-73
2023/08/25 10:42:10;;;;;;;;;;;;;;;21.20;100.00;96246.22;5028943;28;19954;-73
2023/08/25 10:44:41;;;;;;;;;;;;;;;21.38;100.00;96244.63;5028760;28;20268;-76
2023/08/25 10:47:07;;;;;;;;;;;;;;;21.55;100.00;96228.09;5046407;28;19961;-77
2023/08/25 10:49:39;;;;;;;;;;;;;;;21.70;100.00;96233.16;5046653;28;19956;-76
2023/08/25 10:52:15;;;;;;;;;;;;;;;21.80;100.00;96234.84;5046752;28;19967;-76
2023/08/25 10:54:41;;;;;;;;;;;;;;;21.83;100.00;96232.38;5046875;28;19941;-76
2023/08/25 10:57:22;;;;;;;;;;;;;;;21.84;100.00;96235.84;5046781;28;19973;-76
2023/08/25 10:59:52;;;;;;;;;;;;;;;21.84;100.00;96223.28;5046570;28;19954;-76
2023/08/25 11:02:34;;;;;;;;;;;;;;;21.83;100.00;96226.25;5046223;28;19964;-74
2023/08/25 11:05:19;;;;;;;;;;;;;;;21.84;100.00;96225.97;5046317;28;20133;-73
2023/08/25 11:07:45;;;;;;;;;;;;;;;21.86;100.00;96215.78;5028146;28;19966;-73
2023/08/25 11:10:11;;;;;;;;;;;;;;;21.92;100.00;96219.13;5046350;28;19958;-72
2023/08/25 11:12:37;;;;;;;;;;;;;;;21.99;100.00;96202.72;5046532;28;19948;-73
2023/08/25 11:15:07;;;;;;;;;;;;;;;22.04;100.00;96211.41;5045878;28;19962;-73
2023/08/25 11:17:33;;;;;;;;;;;;;;;22.08;100.00;96198.25;5045404;28;19968;-72
2023/08/25 11:19:58;;;;;;;;;;;;;;;22.12;100.00;96212.59;5044338;28;20011;-75
2023/08/25 11:22:24;;;;;;;;;;;;;;;22.20;100.00;96225.25;5028244;28;20019;-72
2023/08/25 11:24:50;;;;;;;;;;;;;;;22.26;100.00;96217.97;5046009;28;19963;-72
2023/08/25 11:27:16;;;;;;;;;;;;;;;22.25;100.00;96219.84;5045857;28;20185;-72
2023/08/25 11:29:45;;;;;;;;;;;;;;;22.29;100.00;96233.41;5045796;28;19969;-72
2023/08/25 11:32:11;;;;;;;;;;;;;;;22.30;100.00;96240.34;5045830;28;19953;-72
2023/08/25 11:34:37;;;;;;;;;;;;;;;22.33;100.00;96230.94;5045892;28;20137;-73
2023/08/25 11:37:03;;;;;;;;;;;;;;;22.35;100.00;96228.75;5045192;28;19963;-73
2023/08/25 11:39:29;;;;;;;;;;;;;;;22.37;100.00;96218.56;5045758;28;20239;-89
2023/08/25 11:41:56;;;;;;;;;;;;;;;22.42;100.00;96211.22;5045813;28;19992;-81
2023/08/25 11:44:22;;;;;;;;;;;;;;;22.51;100.00;96208.66;5045326;28;20009;-82
2023/08/25 11:46:48;;;;;;;;;;;;;;;22.67;100.00;96199.19;5045816;28;19956;-82
2023/08/25 11:49:14;;;;;;;;;;;;;;;22.83;100.00;96194.28;5045741;28;19970;-82
2023/08/25 11:51:40;;;;;;;;;;;;;;;22.96;100.00;96191.88;5045214;28;20000;-82
2023/08/25 11:54:06;;;;;;;;;;;;;;;23.10;100.00;96182.72;5045628;28;19961;-82
2023/08/25 11:56:32;;;;;;;;;;;;;;;23.22;100.00;96184.03;5027615;28;20039;-72
2023/08/25 11:58:58;;;;;;;;;;;;;;;23.25;100.00;96178.09;5045307;28;19962;-73
2023/08/25 12:01:29;;;;;;;;;;;;;;;23.35;100.00;96182.38;5045484;28;20256;-72
2023/08/25 12:03:57;;;;;;;;;;;;;;;23.41;100.00;96167.78;5045422;28;19962;-72
2023/08/25 12:06:23;;;;;;;;;;;;;;;23.43;100.00;96166.38;5045386;28;19956;-72
2023/08/25 12:08:49;;;;;;;;;;;;;;;23.44;100.00;96159.94;5045179;28;19976;-73
2023/08/25 12:11:15;;;;;;;;;;;;;;;23.35;100.00;96132.34;5045165;28;19960;-71
2023/08/25 12:13:42;;;;;;;;;;;;;;;23.32;100.00;96110.75;5045190;28;19978;-72
2023/08/25 12:16:10;;;;;;;;;;;;;;;23.27;100.00;96092.97;5045132;28;19959;-73
2023/08/25 12:18:37;;;;;;;;;;;;;;;23.26;100.00;96105.53;5026867;28;19967;-83
2023/08/25 12:21:05;;;;;;;;;;;;;;;23.19;100.00;96088.34;5044742;28;20251;-83
2023/08/25 12:23:32;;;;;;;;;;;;;;;23.17;100.00;96059.22;5044801;28;20149;-83
2023/08/25 12:25:58;;;;;;;;;;;;;;;23.17;100.00;96045.06;5044936;28;19966;-84
2023/08/25 12:28:23;;;;;;;;;;;;;;;23.19;100.00;96014.25;5027169;28;20129;-83
2023/08/25 12:30:49;;;;;;;;;;;;;;;23.25;100.00;96021.03;5025657;28;19986;-84
2023/08/25 12:33:15;;;;;;;;;;;;;;;23.31;100.00;96024.34;5027220;28;20263;-74